Time;durP1;ratioP1;P1;durP2;ratioP2;P2;SDS_P1;SDS_P2;PMS_P1;PMS_P2;Temp;Humidity;BMP_temperature;BMP_pressure;BME280_temperature;BME280_humidity;BME280_pressure;Samples;Min_cycle;Max_cycle;Signal;HPM_P1;HPM_P2
2023/10/16 00:00:47;;;;;;;8.95;5.57;;;18.30;52.70;;;;;;5052640;28;20230;-76
2023/10/16 00:03:17;;;;;;;7.93;5.90;;;18.30;52.90;;;;;;5036062;28;20219;-76
2023/10/16 00:05:49;;;;;;;9.38;6.05;;;18.30;52.90;;;;;;5054288;28;20199;-76
2023/10/16 00:08:17;;;;;;;8.93;6.05;;;18.30;52.80;;;;;;5053967;28;20183;-76
2023/10/16 00:10:55;;;;;;;8.68;5.88;;;18.30;52.90;;;;;;5036538;28;20227;-76
2023/10/16 00:13:26;;;;;;;6.85;5.45;;;18.30;52.70;;;;;;5037194;28;20274;-76
2023/10/16 00:15:54;;;;;;;7.30;5.07;;;18.20;52.70;;;;;;5036649;28;20299;-76
2023/10/16 00:18:24;;;;;;;8.15;4.80;;;18.20;52.80;;;;;;5036941;28;20199;-76
2023/10/16 00:20:51;;;;;;;7.03;5.25;;;18.20;52.70;;;;;;5037067;28;20247;-76
2023/10/16 00:23:18;;;;;;;7.15;5.00;;;18.20;52.90;;;;;;5036435;28;20719;-76
2023/10/16 00:25:46;;;;;;;7.03;5.00;;;18.20;52.80;;;;;;5036588;28;20203;-76
2023/10/16 00:28:16;;;;;;;7.13;5.45;;;18.20;52.80;;;;;;5036008;28;20195;-76
2023/10/16 00:30:46;;;;;;;7.05;5.05;;;18.20;52.60;;;;;;5036157;28;20310;-76
2023/10/16 00:33:14;;;;;;;6.20;4.55;;;18.10;52.70;;;;;;5020540;28;20187;-76
2023/10/16 00:35:43;;;;;;;5.82;4.68;;;18.10;52.70;;;;;;5040479;28;20301;-76
2023/10/16 00:38:13;;;;;;;6.57;4.95;;;18.10;52.80;;;;;;5024156;28;20203;-76
2023/10/16 00:40:44;;;;;;;5.97;4.35;;;18.10;53.10;;;;;;5040252;28;20570;-76
2023/10/16 00:43:12;;;;;;;5.60;4.45;;;18.10;52.90;;;;;;5040127;28;20627;-76
2023/10/16 00:45:46;;;;;;;5.57;4.40;;;18.10;52.90;;;;;;5040149;28;20199;-76
2023/10/16 00:48:17;;;;;;;5.75;4.30;;;18.10;52.60;;;;;;5040072;28;20278;-76
2023/10/16 00:50:48;;;;;;;4.22;3.83;;;18.10;53.10;;;;;;5039718;28;20215;-76
2023/10/16 00:53:16;;;;;;;6.32;4.07;;;18.10;53.10;;;;;;5040328;28;20211;-76
2023/10/16 00:55:43;;;;;;;5.13;4.20;;;18.00;53.00;;;;;;5039694;28;20666;-76
2023/10/16 00:58:10;;;;;;;5.15;4.03;;;18.00;52.90;;;;;;5039664;28;20207;-76
2023/10/16 01:00:38;;;;;;;4.65;3.90;;;18.00;52.70;;;;;;5023499;28;20230;-76
2023/10/16 01:03:06;;;;;;;6.25;4.05;;;18.00;53.00;;;;;;5040723;28;20265;-76
2023/10/16 01:05:39;;;;;;;4.82;3.92;;;18.00;53.00;;;;;;5040295;28;20200;-76
2023/10/16 01:08:09;;;;;;;5.85;4.28;;;18.00;53.00;;;;;;5040507;28;20195;-76
2023/10/16 01:10:40;;;;;;;5.43;4.13;;;18.00;52.90;;;;;;5039963;28;20288;-76
2023/10/16 01:13:12;;;;;;;5.32;4.10;;;18.00;52.80;;;;;;5040806;28;20202;-76
2023/10/16 01:15:43;;;;;;;4.57;3.70;;;18.00;52.90;;;;;;5040549;28;20258;-76
2023/10/16 01:18:13;;;;;;;4.97;3.70;;;17.90;52.90;;;;;;5039561;28;20209;-76
2023/10/16 01:20:46;;;;;;;6.53;4.07;;;17.90;52.90;;;;;;5039340;28;20227;-76
2023/10/16 01:23:16;;;;;;;4.65;3.90;;;17.90;52.90;;;;;;5039360;28;20692;-76
2023/10/16 01:25:46;;;;;;;4.55;3.65;;;17.90;52.90;;;;;;5039422;28;20203;-76
2023/10/16 01:28:15;;;;;;;5.38;4.10;;;17.90;52.70;;;;;;5038983;28;20199;-76
2023/10/16 01:30:43;;;;;;;4.18;3.53;;;17.90;52.70;;;;;;5039084;28;20682;-75
2023/10/16 01:33:10;;;;;;;4.72;3.67;;;17.90;52.90;;;;;;5039123;28;20222;-75
2023/10/16 01:35:37;;;;;;;5.13;3.70;;;17.90;52.60;;;;;;5038948;28;20192;-75
2023/10/16 01:38:14;;;;;;;4.45;3.55;;;17.90;52.90;;;;;;5038993;28;20662;-75
2023/10/16 01:41:00;;;;;;;3.95;3.55;;;17.80;52.80;;;;;;5039492;28;20254;-75
2023/10/16 01:43:29;;;;;;;4.82;3.20;;;17.80;52.80;;;;;;5038864;28;20261;-75
2023/10/16 01:45:58;;;;;;;4.53;3.55;;;17.80;52.80;;;;;;5038379;28;20257;-75
2023/10/16 01:48:27;;;;;;;4.18;3.25;;;17.80;52.90;;;;;;5038506;28;20196;-75
2023/10/16 01:50:55;;;;;;;3.85;3.35;;;17.80;53.00;;;;;;5038623;28;20250;-75
2023/10/16 01:53:25;;;;;;;4.15;3.47;;;17.80;52.80;;;;;;5038667;28;20201;-75
2023/10/16 01:55:55;;;;;;;3.85;3.30;;;17.70;53.00;;;;;;5038626;28;20653;-75
2023/10/16 01:58:23;;;;;;;3.72;3.22;;;17.70;53.20;;;;;;5038185;28;20254;-75
2023/10/16 02:00:51;;;;;;;4.53;3.28;;;17.70;53.30;;;;;;5038176;28;20309;-75
2023/10/16 02:03:18;;;;;;;3.30;3.00;;;17.70;52.80;;;;;;5038056;28;20222;-75
2023/10/16 02:05:46;;;;;;;3.70;2.97;;;17.70;52.80;;;;;;5038505;28;20207;-75
2023/10/16 02:08:14;;;;;;;3.85;3.00;;;17.70;52.70;;;;;;5039061;28;20261;-75
2023/10/16 02:10:42;;;;;;;3.50;3.20;;;17.70;52.90;;;;;;5038440;28;20223;-75
2023/10/16 02:13:11;;;;;;;4.93;3.38;;;17.70;52.90;;;;;;5038386;28;20218;-75
2023/10/16 02:15:38;;;;;;;4.80;3.35;;;17.60;52.60;;;;;;5037939;28;20634;-75
2023/10/16 02:18:07;;;;;;;3.65;3.28;;;17.70;52.70;;;;;;5039077;28;20191;-75
2023/10/16 02:20:38;;;;;;;4.43;2.85;;;17.60;52.70;;;;;;5038151;28;20269;-75
2023/10/16 02:23:06;;;;;;;4.00;3.10;;;17.60;52.80;;;;;;5037807;28;20353;-75
2023/10/16 02:25:35;;;;;;;4.20;3.10;;;17.60;52.90;;;;;;5038222;28;20196;-75
2023/10/16 02:28:02;;;;;;;3.60;2.72;;;17.60;52.60;;;;;;5038116;28;20208;-75
2023/10/16 02:30:35;;;;;;;5.18;3.00;;;17.60;53.40;;;;;;5038607;28;20219;-75
2023/10/16 02:33:14;;;;;;;3.63;3.00;;;17.60;52.70;;;;;;5038805;28;20222;-75
2023/10/16 02:35:48;;;;;;;3.10;2.67;;;17.60;52.80;;;;;;5057368;28;20527;-75
2023/10/16 02:38:23;;;;;;;3.28;2.97;;;17.60;52.70;;;;;;5038317;28;20211;-75
2023/10/16 02:40:52;;;;;;;3.17;2.88;;;17.60;52.80;;;;;;5038152;28;20294;-75
2023/10/16 02:43:20;;;;;;;2.60;2.40;;;17.50;52.90;;;;;;5037926;28;20302;-75
2023/10/16 02:45:52;;;;;;;3.10;2.75;;;17.50;52.90;;;;;;5038595;28;20191;-75
2023/10/16 02:48:20;;;;;;;3.47;3.10;;;17.50;52.70;;;;;;5038266;28;20199;-75
2023/10/16 02:50:53;;;;;;;3.28;2.78;;;17.50;52.60;;;;;;5037565;28;20219;-75
2023/10/16 02:53:22;;;;;;;3.97;2.97;;;17.50;52.80;;;;;;5037622;28;20773;-75
2023/10/16 02:55:53;;;;;;;4.32;3.05;;;17.50;53.10;;;;;;5036903;28;20203;-75
2023/10/16 02:58:22;;;;;;;2.78;2.53;;;17.50;52.60;;;;;;5037752;28;20211;-75
2023/10/16 03:00:53;;;;;;;3.88;2.90;;;17.50;52.60;;;;;;5037500;28;20222;-75
2023/10/16 03:03:21;;;;;;;3.60;2.83;;;17.50;53.20;;;;;;5037530;28;20302;-75
2023/10/16 03:05:49;;;;;;;3.63;2.65;;;17.50;52.80;;;;;;5037267;28;20245;-75
2023/10/16 03:08:19;;;;;;;2.92;2.60;;;17.50;52.60;;;;;;5037167;28;20725;-75
2023/10/16 03:10:46;;;;;;;2.83;2.50;;;17.50;52.50;;;;;;5036816;28;20215;-75
2023/10/16 03:13:15;;;;;;;2.90;2.58;;;17.40;52.60;;;;;;5036780;28;20200;-75
2023/10/16 03:15:45;;;;;;;2.85;2.50;;;17.40;53.10;;;;;;5036808;28;20195;-75
2023/10/16 03:18:22;;;;;;;2.90;2.60;;;17.40;53.50;;;;;;5036649;28;20191;-75
2023/10/16 03:20:49;;;;;;;2.97;2.40;;;17.40;54.10;;;;;;5036696;28;20215;-75
2023/10/16 03:23:19;;;;;;;3.33;2.70;;;17.40;53.30;;;;;;5036844;28;20582;-75
2023/10/16 03:25:52;;;;;;;3.05;2.67;;;17.40;53.30;;;;;;5036578;28;20269;-75
2023/10/16 03:28:19;;;;;;;3.10;2.65;;;17.40;53.40;;;;;;5020966;28;20214;-75
2023/10/16 03:30:49;;;;;;;3.53;2.42;;;17.50;53.30;;;;;;5036539;28;20622;-75
2023/10/16 03:33:18;;;;;;;3.30;2.60;;;17.50;53.20;;;;;;5036570;28;20219;-75
2023/10/16 03:35:49;;;;;;;3.25;2.55;;;17.50;53.20;;;;;;5054507;28;20192;-75
2023/10/16 03:38:25;;;;;;;3.38;2.63;;;17.60;53.40;;;;;;5036618;28;20187;-75
2023/10/16 03:40:52;;;;;;;2.95;2.40;;;17.60;53.20;;;;;;5036686;28;20218;-75
2023/10/16 03:43:21;;;;;;;2.90;2.60;;;17.60;53.10;;;;;;5036489;28;20222;-75
2023/10/16 03:45:50;;;;;;;2.80;2.40;;;17.60;52.90;;;;;;5020042;28;20211;-75
2023/10/16 03:48:20;;;;;;;2.63;2.42;;;17.60;52.90;;;;;;5036457;28;20273;-75
2023/10/16 03:50:47;;;;;;;2.88;2.53;;;17.60;52.60;;;;;;5037103;28;20269;-75
2023/10/16 03:53:14;;;;;;;2.45;2.22;;;17.60;52.60;;;;;;5036694;28;20266;-75
2023/10/16 03:55:46;;;;;;;3.10;2.42;;;17.60;52.60;;;;;;5019755;28;20294;-75
2023/10/16 03:58:13;;;;;;;2.70;2.50;;;17.70;52.70;;;;;;5036269;28;20199;-75
2023/10/16 04:00:57;;;;;;;2.50;2.30;;;17.70;52.70;;;;;;5036529;28;20318;-76
2023/10/16 04:03:26;;;;;;;2.50;2.30;;;17.60;52.60;;;;;;5036044;28;20237;-76
2023/10/16 04:05:54;;;;;;;2.65;2.45;;;17.60;52.50;;;;;;5035896;28;20199;-76
2023/10/16 04:08:23;;;;;;;2.78;2.50;;;17.60;52.60;;;;;;5035758;28;20207;-76
2023/10/16 04:10:53;;;;;;;2.88;2.55;;;17.60;52.30;;;;;;5035941;28;20289;-76
2023/10/16 04:13:25;;;;;;;2.75;2.33;;;17.60;52.20;;;;;;5036068;28;20191;-76
2023/10/16 04:16:11;;;;;;;2.53;2.33;;;17.60;52.00;;;;;;5035781;28;20183;-76
2023/10/16 04:18:39;;;;;;;3.13;2.42;;;17.60;51.90;;;;;;5036043;28;20226;-76
2023/10/16 04:24:04;;;;;;;2.50;2.30;;;17.60;51.50;;;;;;5035604;28;20320;-76
2023/10/16 04:26:46;;;;;;;2.60;2.38;;;17.50;51.70;;;;;;5019746;28;20233;-76
2023/10/16 04:29:25;;;;;;;2.58;2.13;;;17.60;51.80;;;;;;5036976;28;20191;-77
2023/10/16 04:31:57;;;;;;;2.95;2.30;;;17.60;52.30;;;;;;5035824;28;20195;-77
2023/10/16 04:34:33;;;;;;;2.88;2.20;;;17.60;51.50;;;;;;5035856;28;20183;-77
2023/10/16 04:45:28;;;;;;;3.00;2.40;;;17.60;51.20;;;;;;5035975;28;20237;-75
2023/10/16 04:48:07;;;;;;;2.50;2.30;;;17.60;51.10;;;;;;5036556;28;20550;-75
2023/10/16 04:50:40;;;;;;;2.78;2.45;;;17.60;50.90;;;;;;5036444;28;20681;-75
2023/10/16 04:53:07;;;;;;;2.60;2.40;;;17.60;51.30;;;;;;5036817;28;20213;-75
2023/10/16 04:58:38;;;;;;;2.40;2.20;;;17.60;50.40;;;;;;5036807;28;20269;-75
2023/10/16 05:01:33;;;;;;;2.88;2.28;;;17.60;50.70;;;;;;5036588;28;20267;-75
2023/10/16 05:06:56;;;;;;;2.95;2.40;;;17.60;50.60;;;;;;5036745;28;20195;-75
2023/10/16 06:15:59;;;;;;;4.80;4.25;;;17.50;48.70;;;;;;4997933;28;20196;-76
2023/10/16 06:18:27;;;;;;;5.75;4.30;;;17.60;49.00;;;;;;5021083;28;20192;-76
2023/10/16 06:20:54;;;;;;;4.63;4.22;;;17.60;49.00;;;;;;5038039;28;20215;-77
2023/10/16 06:23:21;;;;;;;4.68;3.67;;;17.60;48.80;;;;;;5038020;28;20191;-77
2023/10/16 06:25:48;;;;;;;5.50;3.72;;;17.70;48.80;;;;;;5037915;28;20701;-77
2023/10/16 06:28:17;;;;;;;5.05;3.38;;;17.70;48.70;;;;;;5038182;28;20202;-77
2023/10/16 06:30:45;;;;;;;5.47;3.58;;;17.70;48.50;;;;;;5038105;28;20223;-78
2023/10/16 06:33:14;;;;;;;4.82;3.30;;;17.70;48.40;;;;;;5038069;28;20195;-78
2023/10/16 06:35:41;;;;;;;8.32;3.22;;;17.80;48.70;;;;;;5038231;28;20191;-78
2023/10/16 06:38:11;;;;;;;3.67;3.08;;;17.80;49.30;;;;;;5021753;28;20203;-78
2023/10/16 06:40:40;;;;;;;5.72;3.17;;;17.80;49.10;;;;;;5038317;28;20246;-78
2023/10/16 06:43:13;;;;;;;6.40;3.35;;;17.80;49.10;;;;;;5038175;28;20660;-78
2023/10/16 06:45:42;;;;;;;5.30;2.72;;;17.80;49.00;;;;;;5037587;28;20212;-78
2023/10/16 06:48:14;;;;;;;5.00;3.00;;;17.80;49.70;;;;;;5037824;28;20643;-78
2023/10/16 06:50:45;;;;;;;3.15;2.70;;;17.90;50.60;;;;;;5037714;28;20749;-78
2023/10/16 06:53:12;;;;;;;6.65;3.22;;;17.90;50.50;;;;;;5037711;28;20215;-78
2023/10/16 06:55:39;;;;;;;3.75;2.92;;;17.90;49.90;;;;;;5037620;28;20650;-78
2023/10/16 06:58:06;;;;;;;7.85;3.13;;;17.90;49.50;;;;;;5038195;28;20192;-78
2023/10/16 07:00:34;;;;;;;4.00;2.80;;;17.90;49.10;;;;;;5037582;28;20618;-78
2023/10/16 07:03:09;;;;;;;3.63;2.75;;;18.00;49.30;;;;;;5037419;28;20183;-78
2023/10/16 07:05:43;;;;;;;4.00;3.05;;;18.00;49.30;;;;;;5037263;28;20218;-78
2023/10/16 07:08:10;;;;;;;3.47;3.03;;;18.00;49.10;;;;;;5037392;28;20186;-78
2023/10/16 07:10:42;;;;;;;4.85;2.83;;;18.10;49.10;;;;;;5037575;28;20358;-78
2023/10/16 07:13:09;;;;;;;4.93;3.00;;;18.10;49.30;;;;;;5021431;28;20245;-77
2023/10/16 07:15:36;;;;;;;3.60;2.60;;;18.10;49.30;;;;;;5037162;28;20202;-77
2023/10/16 07:18:06;;;;;;;4.43;2.90;;;18.20;49.30;;;;;;5037109;28;20620;-77
2023/10/16 07:20:34;;;;;;;5.18;3.03;;;18.20;49.00;;;;;;5037251;28;20226;-77
2023/10/16 07:23:09;;;;;;;4.15;2.75;;;18.30;49.00;;;;;;5037500;28;20278;-77
2023/10/16 07:25:47;;;;;;;5.60;2.92;;;18.30;49.20;;;;;;5038640;28;20230;-77
2023/10/16 07:28:15;;;;;;;4.97;2.83;;;18.40;49.40;;;;;;5039101;28;20183;-77
2023/10/16 07:30:44;;;;;;;3.97;2.60;;;18.40;49.60;;;;;;5037673;28;20314;-77
2023/10/16 07:33:14;;;;;;;4.28;2.70;;;18.50;49.20;;;;;;5037977;28;20203;-77
2023/10/16 07:35:44;;;;;;;3.95;2.78;;;18.50;49.40;;;;;;5054772;28;20172;-77
2023/10/16 07:38:11;;;;;;;5.03;2.80;;;18.60;49.10;;;;;;5037071;28;20205;-77
2023/10/16 07:40:39;;;;;;;5.03;3.00;;;18.50;49.40;;;;;;5036694;28;20693;-77
2023/10/16 07:43:06;;;;;;;4.68;2.88;;;18.60;49.30;;;;;;5037713;28;20195;-78
2023/10/16 07:45:33;;;;;;;2.65;2.45;;;18.60;49.50;;;;;;5037497;28;20232;-78
2023/10/16 07:48:07;;;;;;;2.92;2.63;;;18.60;49.10;;;;;;5037052;28;20669;-78
2023/10/16 07:50:41;;;;;;;2.50;2.30;;;18.60;49.10;;;;;;5036839;28;20273;-78
2023/10/16 07:53:08;;;;;;;3.88;2.80;;;18.70;49.20;;;;;;5036716;28;20191;-78
2023/10/16 07:55:39;;;;;;;4.72;2.55;;;18.70;49.40;;;;;;5036900;28;20195;-78
2023/10/16 07:58:15;;;;;;;2.85;2.53;;;18.80;49.40;;;;;;5037253;28;20606;-77
2023/10/16 08:01:17;;;;;;;3.08;2.70;;;19.00;49.80;;;;;;5037343;28;20277;-77
2023/10/16 08:03:36;;;;;;;2.85;2.35;;;19.10;49.40;;;;;;5037763;28;20187;-77
2023/10/16 08:06:05;;;;;;;3.30;2.63;;;19.50;49.00;;;;;;5036940;28;20301;-78
2023/10/16 08:08:36;;;;;;;3.47;2.70;;;19.70;48.60;;;;;;5020402;28;20739;-78
2023/10/16 08:11:12;;;;;;;3.22;2.50;;;19.90;47.90;;;;;;5036358;28;20219;-77
2023/10/16 08:13:46;;;;;;;3.85;2.45;;;20.10;47.70;;;;;;5036958;28;20249;-78
2023/10/16 08:16:17;;;;;;;3.63;2.65;;;20.20;47.00;;;;;;5036381;28;20187;-78
2023/10/16 08:18:47;;;;;;;3.47;2.33;;;20.40;47.00;;;;;;5036339;28;20198;-78
2023/10/16 08:21:24;;;;;;;3.42;2.45;;;20.60;46.90;;;;;;5036369;28;20226;-78
2023/10/16 08:23:53;;;;;;;2.58;2.38;;;20.70;46.50;;;;;;5037820;28;20206;-78
2023/10/16 08:26:28;;;;;;;3.55;2.47;;;20.90;46.50;;;;;;5036842;28;20579;-78
2023/10/16 08:28:56;;;;;;;2.63;2.20;;;21.00;46.30;;;;;;5036575;28;20195;-78
2023/10/16 08:31:26;;;;;;;2.60;2.25;;;21.20;46.20;;;;;;5036491;28;20203;-78
2023/10/16 08:33:54;;;;;;;3.40;2.50;;;21.40;45.90;;;;;;5036344;28;20203;-76
2023/10/16 08:36:22;;;;;;;3.30;2.67;;;21.50;45.70;;;;;;5036383;28;20192;-76
2023/10/16 08:38:55;;;;;;;3.70;2.60;;;21.70;45.40;;;;;;5036036;28;20195;-76
2023/10/16 08:41:29;;;;;;;2.70;2.50;;;21.80;45.20;;;;;;5035953;28;20214;-76
2023/10/16 08:44:07;;;;;;;3.05;2.47;;;21.90;45.00;;;;;;5036183;28;20556;-77
2023/10/16 08:46:44;;;;;;;4.55;2.42;;;22.00;44.70;;;;;;5036793;28;20630;-77
2023/10/16 08:49:11;;;;;;;2.97;2.50;;;22.10;44.70;;;;;;5036319;28;20194;-78
2023/10/16 08:51:39;;;;;;;2.97;2.70;;;22.10;44.60;;;;;;5020479;28;20214;-78
2023/10/16 08:54:35;;;;;;;3.20;2.30;;;22.20;44.50;;;;;;5036220;28;20207;-77
2023/10/16 08:56:54;;;;;;;4.05;2.63;;;22.20;44.50;;;;;;5040088;28;20195;-77
2023/10/16 08:59:21;;;;;;;3.15;2.28;;;22.30;44.50;;;;;;5039953;28;20322;-77
2023/10/16 09:01:48;;;;;;;3.80;2.40;;;22.30;44.50;;;;;;5040050;28;20548;-77
2023/10/16 09:04:15;;;;;;;3.20;2.38;;;22.30;44.40;;;;;;5039701;28;20658;-77
2023/10/16 09:06:44;;;;;;;3.53;2.30;;;22.30;44.30;;;;;;5039717;28;20196;-78
2023/10/16 09:09:16;;;;;;;2.63;2.17;;;22.40;44.40;;;;;;5023279;28;20203;-77
2023/10/16 09:11:45;;;;;;;3.92;2.30;;;22.40;44.30;;;;;;5039544;28;20625;-76
2023/10/16 09:14:13;;;;;;;3.05;2.20;;;22.50;44.10;;;;;;5039864;28;20567;-75
2023/10/16 09:16:43;;;;;;;4.35;2.20;;;22.50;44.20;;;;;;5041254;28;20199;-75
2023/10/16 09:19:13;;;;;;;3.42;2.30;;;22.50;44.00;;;;;;5039771;28;20203;-75
2023/10/16 09:21:43;;;;;;;2.90;2.10;;;22.60;43.90;;;;;;5039778;28;20574;-78
2023/10/16 09:24:12;;;;;;;2.65;2.17;;;22.60;43.90;;;;;;5039831;28;20196;-77
2023/10/16 09:26:44;;;;;;;2.90;2.20;;;22.60;43.90;;;;;;5039262;28;20747;-77
2023/10/16 09:29:14;;;;;;;2.42;2.20;;;22.60;43.90;;;;;;5040042;28;20187;-76
2023/10/16 09:31:44;;;;;;;3.20;2.40;;;22.60;43.90;;;;;;5039159;28;20202;-79
2023/10/16 09:34:13;;;;;;;3.70;2.30;;;22.70;43.80;;;;;;5022804;28;20199;-78
2023/10/16 09:36:41;;;;;;;2.42;2.15;;;22.70;43.70;;;;;;5022593;28;20195;-76
2023/10/16 09:39:17;;;;;;;2.97;2.20;;;22.70;43.50;;;;;;5039021;28;20247;-78
2023/10/16 09:41:49;;;;;;;3.13;2.28;;;22.80;43.50;;;;;;5039432;28;20527;-78
2023/10/16 09:44:36;;;;;;;2.42;2.13;;;22.80;43.50;;;;;;5025439;28;20200;-78
2023/10/16 09:47:25;;;;;;;3.33;2.13;;;22.80;43.40;;;;;;5040271;28;20199;-78
2023/10/16 09:49:51;;;;;;;4.15;2.40;;;22.90;43.50;;;;;;5040178;28;20310;-78
2023/10/16 09:52:20;;;;;;;3.58;2.10;;;22.90;43.60;;;;;;5040339;28;20245;-78
2023/10/16 09:54:48;;;;;;;2.63;2.30;;;23.00;42.80;;;;;;5040797;28;20203;-78
2023/10/16 09:57:18;;;;;;;3.67;2.28;;;23.10;43.10;;;;;;5040109;28;20199;-78
2023/10/16 09:59:45;;;;;;;5.03;2.45;;;23.10;42.80;;;;;;5039710;28;20694;-79
2023/10/16 10:02:17;;;;;;;4.40;2.20;;;23.10;42.70;;;;;;5038986;28;20199;-79
2023/10/16 10:04:53;;;;;;;2.40;2.10;;;23.20;42.70;;;;;;5038770;28;20199;-79
2023/10/16 10:07:23;;;;;;;4.28;2.00;;;23.20;42.70;;;;;;5038533;28;20183;-79
2023/10/16 10:09:57;;;;;;;4.55;2.25;;;23.20;42.20;;;;;;5041208;28;20567;-80
2023/10/16 10:12:42;;;;;;;2.88;2.20;;;23.20;42.30;;;;;;5041225;28;20203;-80
2023/10/16 10:15:15;;;;;;;3.33;2.08;;;23.20;42.70;;;;;;5040352;28;20296;-79
2023/10/16 10:17:43;;;;;;;2.85;2.35;;;23.20;42.70;;;;;;5040215;28;20294;-80
2023/10/16 10:20:18;;;;;;;4.55;2.50;;;23.20;41.40;;;;;;5040727;28;20219;-79
2023/10/16 10:22:47;;;;;;;4.90;2.55;;;23.20;39.70;;;;;;5025243;28;20199;-79
2023/10/16 10:25:17;;;;;;;4.00;2.22;;;23.20;40.20;;;;;;5040086;28;20242;-79
2023/10/16 10:27:46;;;;;;;2.75;2.25;;;23.20;40.30;;;;;;5041081;28;20203;-80
2023/10/16 10:30:17;;;;;;;3.47;2.20;;;23.20;40.80;;;;;;5039154;28;20693;-80
2023/10/16 10:32:51;;;;;;;2.90;2.05;;;23.20;41.20;;;;;;5021542;28;20195;-79
2023/10/16 10:35:21;;;;;;;3.95;2.15;;;23.20;41.60;;;;;;5040927;28;20183;-79
2023/10/16 10:37:48;;;;;;;2.45;2.17;;;23.20;41.60;;;;;;5041284;28;20233;-79
2023/10/16 10:40:21;;;;;;;3.05;1.80;;;23.20;41.70;;;;;;5040773;28;20242;-80
2023/10/16 10:42:54;;;;;;;3.47;2.50;;;23.10;41.80;;;;;;5039516;28;20278;-79
2023/10/16 10:45:33;;;;;;;3.63;2.38;;;23.20;42.00;;;;;;5038459;28;20293;-79
2023/10/16 10:48:06;;;;;;;2.85;2.10;;;23.10;42.20;;;;;;5037898;28;20191;-79
2023/10/16 10:50:34;;;;;;;3.10;2.00;;;23.20;41.70;;;;;;5037382;28;20214;-79
2023/10/16 10:53:13;;;;;;;3.25;1.92;;;23.20;42.10;;;;;;5037605;28;20298;-79
2023/10/16 10:55:53;;;;;;;2.70;2.20;;;23.20;42.20;;;;;;5040910;28;20191;-79
2023/10/16 10:58:23;;;;;;;2.25;2.00;;;23.10;42.30;;;;;;5040422;28;20189;-79
2023/10/16 11:00:53;;;;;;;2.00;1.80;;;23.20;42.30;;;;;;5057609;28;20234;-79
2023/10/16 11:03:41;;;;;;;2.17;1.90;;;23.20;42.50;;;;;;5023477;28;20202;-80
2023/10/16 11:06:18;;;;;;;2.28;1.70;;;23.20;42.50;;;;;;5026238;28;20277;-79
2023/10/16 11:08:47;;;;;;;5.70;1.90;;;23.20;42.50;;;;;;5039001;28;20205;-79
2023/10/16 11:11:15;;;;;;;2.70;1.90;;;23.20;42.50;;;;;;5022643;28;20732;-79
2023/10/16 11:13:46;;;;;;;4.78;1.83;;;23.20;42.50;;;;;;5039409;28;20196;-79
2023/10/16 11:16:14;;;;;;;2.30;1.90;;;23.30;42.50;;;;;;5038943;28;20199;-79
2023/10/16 11:18:43;;;;;;;1.70;1.60;;;23.30;42.40;;;;;;5021860;28;20199;-80
2023/10/16 11:21:13;;;;;;;2.95;1.73;;;23.20;42.50;;;;;;5038801;28;20247;-79
2023/10/16 11:23:42;;;;;;;2.03;1.80;;;23.20;42.70;;;;;;5038899;28;20233;-79
2023/10/16 11:26:13;;;;;;;3.63;1.90;;;23.20;42.80;;;;;;5038545;28;20239;-79
2023/10/16 11:28:48;;;;;;;1.92;1.60;;;23.20;42.90;;;;;;5038249;28;20218;-80
2023/10/16 11:31:18;;;;;;;3.85;1.90;;;23.20;42.90;;;;;;5037123;28;20310;-79
2023/10/16 11:33:46;;;;;;;2.60;1.77;;;23.10;43.00;;;;;;5056336;28;20195;-79
2023/10/16 11:36:14;;;;;;;3.67;1.70;;;23.20;43.10;;;;;;5023334;28;20599;-78
2023/10/16 11:38:43;;;;;;;1.83;1.67;;;23.10;43.30;;;;;;5039132;28;20206;-78
2023/10/16 11:41:16;;;;;;;3.08;1.70;;;23.20;43.30;;;;;;5039177;28;20229;-78
2023/10/16 11:43:47;;;;;;;2.03;1.80;;;23.20;43.30;;;;;;5036870;28;20192;-78
2023/10/16 11:46:28;;;;;;;2.10;1.80;;;23.20;43.70;;;;;;5039330;28;20298;-78
2023/10/16 11:48:58;;;;;;;3.47;1.80;;;23.20;43.40;;;;;;5036322;28;20191;-80
2023/10/16 11:51:26;;;;;;;1.70;1.60;;;23.20;43.30;;;;;;5054972;28;20178;-78
2023/10/16 11:53:56;;;;;;;2.38;1.52;;;23.20;43.40;;;;;;5037357;28;20626;-78
2023/10/16 11:56:23;;;;;;;3.42;1.90;;;23.20;43.40;;;;;;5036813;28;20287;-78
2023/10/16 11:58:53;;;;;;;3.97;1.70;;;23.20;43.30;;;;;;5036858;28;20207;-78
2023/10/16 12:01:20;;;;;;;2.35;1.60;;;23.20;43.50;;;;;;5036911;28;20199;-78
2023/10/16 12:03:47;;;;;;;1.80;1.60;;;23.20;43.50;;;;;;5020028;28;20267;-78
2023/10/16 12:06:17;;;;;;;2.35;1.85;;;23.20;43.50;;;;;;5054416;28;20208;-78
2023/10/16 12:08:44;;;;;;;2.47;1.60;;;23.20;43.40;;;;;;5036973;28;20219;-78
2023/10/16 12:11:14;;;;;;;2.42;1.80;;;23.20;43.70;;;;;;5036259;28;20219;-78
2023/10/16 12:13:41;;;;;;;2.22;1.88;;;23.20;43.80;;;;;;5036336;28;20209;-79
2023/10/16 12:16:08;;;;;;;1.70;1.60;;;23.20;43.80;;;;;;5036562;28;20245;-79
2023/10/16 12:18:35;;;;;;;2.05;1.75;;;23.10;43.70;;;;;;5036599;28;20211;-79
2023/10/16 12:21:05;;;;;;;3.05;1.52;;;23.10;43.80;;;;;;5036229;28;20666;-79
2023/10/16 12:23:36;;;;;;;1.90;1.70;;;23.10;43.70;;;;;;5036413;28;20195;-79
2023/10/16 12:26:04;;;;;;;2.60;1.80;;;23.00;43.70;;;;;;5036801;28;20306;-79
2023/10/16 12:28:32;;;;;;;3.63;1.95;;;23.00;43.80;;;;;;5055976;28;20213;-79
2023/10/16 12:30:59;;;;;;;2.05;1.80;;;23.00;43.80;;;;;;5043840;28;20227;-79
2023/10/16 12:33:26;;;;;;;2.70;1.77;;;23.00;43.70;;;;;;5043092;28;20187;-79
2023/10/16 12:35:55;;;;;;;1.88;1.73;;;23.00;43.90;;;;;;5043000;28;20286;-79
2023/10/16 12:38:24;;;;;;;1.60;1.50;;;22.90;44.00;;;;;;5060927;28;20588;-79
2023/10/16 12:40:55;;;;;;;1.40;1.30;;;22.90;44.00;;;;;;5043043;28;20251;-79
2023/10/16 12:43:24;;;;;;;3.03;1.50;;;22.90;44.20;;;;;;5043198;28;20199;-79
2023/10/16 12:45:52;;;;;;;4.65;1.77;;;22.80;44.10;;;;;;5043148;28;20570;-79
2023/10/16 12:48:21;;;;;;;3.00;1.60;;;22.80;44.40;;;;;;5042726;28;20716;-79
2023/10/16 12:50:48;;;;;;;2.22;1.33;;;22.70;44.20;;;;;;5042492;28;20219;-79
2023/10/16 12:53:15;;;;;;;2.17;1.50;;;22.70;44.20;;;;;;5026162;28;20202;-79
2023/10/16 12:55:48;;;;;;;2.50;1.48;;;22.70;44.00;;;;;;5026692;28;20187;-79
2023/10/16 12:58:18;;;;;;;1.83;1.70;;;22.60;43.80;;;;;;5043377;28;20188;-79
2023/10/16 13:00:50;;;;;;;2.05;1.50;;;22.60;43.60;;;;;;5042831;28;20310;-79
2023/10/16 13:03:20;;;;;;;2.33;1.45;;;22.60;44.00;;;;;;5043683;28;20188;-79
2023/10/16 13:05:48;;;;;;;1.85;1.40;;;22.50;43.70;;;;;;5042517;28;20218;-79
2023/10/16 13:08:16;;;;;;;2.88;1.55;;;22.50;44.00;;;;;;5042795;28;20226;-79
2023/10/16 13:10:48;;;;;;;1.85;1.50;;;22.50;44.40;;;;;;5060536;28;20583;-79
2023/10/16 13:13:20;;;;;;;2.03;1.52;;;22.40;44.10;;;;;;5042785;28;20191;-79
2023/10/16 13:15:52;;;;;;;1.35;1.30;;;22.40;44.70;;;;;;5042923;28;20270;-79
2023/10/16 13:18:27;;;;;;;1.30;1.20;;;22.40;44.30;;;;;;5027945;28;20203;-79
2023/10/16 13:21:06;;;;;;;1.77;1.50;;;22.30;44.20;;;;;;5043088;28;20214;-79
2023/10/16 13:23:36;;;;;;;2.45;1.55;;;22.30;43.90;;;;;;5042939;28;20634;-79
2023/10/16 13:26:07;;;;;;;1.50;1.38;;;22.30;43.70;;;;;;5042630;28;20218;-79
2023/10/16 13:28:40;;;;;;;1.40;1.30;;;22.20;44.10;;;;;;5043635;28;20626;-79
2023/10/16 13:31:09;;;;;;;1.58;1.48;;;22.20;44.20;;;;;;5042456;28;20250;-79
2023/10/16 13:33:40;;;;;;;1.85;1.30;;;22.20;44.30;;;;;;5043063;28;20200;-79
2023/10/16 13:36:11;;;;;;;2.17;1.42;;;22.10;44.30;;;;;;5061439;28;20175;-79
2023/10/16 13:38:39;;;;;;;3.13;1.40;;;22.10;44.70;;;;;;5042886;28;20202;-79
2023/10/16 13:41:17;;;;;;;2.88;1.50;;;22.10;44.70;;;;;;5025541;28;20273;-79
2023/10/16 13:43:45;;;;;;;2.08;1.50;;;22.10;44.10;;;;;;5040006;28;20672;-79
2023/10/16 13:46:13;;;;;;;1.75;1.30;;;22.10;45.00;;;;;;5039682;28;20226;-79
2023/10/16 13:48:45;;;;;;;1.40;1.30;;;22.00;44.50;;;;;;5039629;28;20199;-79
2023/10/16 13:51:16;;;;;;;1.63;1.23;;;22.00;44.20;;;;;;5040804;28;20241;-79
2023/10/16 13:53:43;;;;;;;2.03;1.40;;;22.00;44.40;;;;;;5040036;28;20195;-79
2023/10/16 13:56:11;;;;;;;1.83;1.40;;;21.90;43.90;;;;;;5039960;28;20282;-79
2023/10/16 13:58:38;;;;;;;3.58;1.40;;;21.90;43.70;;;;;;5039375;28;20753;-79
2023/10/16 14:01:08;;;;;;;2.17;1.38;;;21.80;44.70;;;;;;5039535;28;20685;-79
2023/10/16 14:03:36;;;;;;;2.90;1.67;;;21.80;43.60;;;;;;5039081;28;20566;-79
2023/10/16 14:06:12;;;;;;;1.30;1.20;;;21.80;44.00;;;;;;5039187;28;20204;-79
2023/10/16 14:08:41;;;;;;;2.00;1.50;;;21.80;45.30;;;;;;5039565;28;20191;-80
2023/10/16 14:11:11;;;;;;;1.60;1.38;;;21.70;45.30;;;;;;5039080;28;20223;-80
2023/10/16 14:13:40;;;;;;;2.17;1.55;;;21.70;45.40;;;;;;5039284;28;20631;-80
2023/10/16 14:16:11;;;;;;;3.08;1.33;;;21.70;45.40;;;;;;5039216;28;20211;-79
2023/10/16 14:18:42;;;;;;;3.22;1.55;;;21.70;45.00;;;;;;5040084;28;20211;-79
2023/10/16 14:21:10;;;;;;;2.40;1.70;;;21.70;45.00;;;;;;5039940;28;20285;-79
2023/10/16 14:23:39;;;;;;;2.65;1.23;;;21.70;46.70;;;;;;5039546;28;20237;-79
2023/10/16 14:26:10;;;;;;;2.55;1.42;;;21.60;46.20;;;;;;5039533;28;20564;-79
2023/10/16 14:28:40;;;;;;;2.58;1.50;;;21.60;46.50;;;;;;5040382;28;20204;-80